sensor_id;sensor_type;location;lat;lon;timestamp;pressure;altitude;pressure_sealevel;temperature;humidity
75681;BME280;64294;49.176;16.626;2023-04-24T00:01:00;98260.22;;;12.17;62.51
75681;BME280;64294;49.176;16.626;2023-04-24T00:03:26;98259.50;;;12.08;61.69
75681;BME280;64294;49.176;16.626;2023-04-24T00:05:53;98259.31;;;12.14;62.65
75681;BME280;64294;49.176;16.626;2023-04-24T00:08:18;98259.50;;;12.08;63.74
75681;BME280;64294;49.176;16.626;2023-04-24T00:10:44;98268.34;;;12.05;64.28
75681;BME280;64294;49.176;16.626;2023-04-24T00:13:09;98263.78;;;12.17;61.96
75681;BME280;64294;49.176;16.626;2023-04-24T00:15:35;98262.28;;;12.16;61.72
75681;BME280;64294;49.176;16.626;2023-04-24T00:18:00;98258.31;;;12.19;61.71
75681;BME280;64294;49.176;16.626;2023-04-24T00:20:27;98248.03;;;12.14;60.69
75681;BME280;64294;49.176;16.626;2023-04-24T00:22:54;98247.13;;;12.11;61.01
75681;BME280;64294;49.176;16.626;2023-04-24T00:25:20;98246.56;;;12.05;61.22
75681;BME280;64294;49.176;16.626;2023-04-24T00:27:45;98243.25;;;11.99;61.12
75681;BME280;64294;49.176;16.626;2023-04-24T00:30:10;98240.78;;;12.03;62.28
75681;BME280;64294;49.176;16.626;2023-04-24T00:32:36;98244.34;;;12.04;60.80
75681;BME280;64294;49.176;16.626;2023-04-24T00:35:01;98249.94;;;12.11;60.07
75681;BME280;64294;49.176;16.626;2023-04-24T00:37:27;98244.34;;;12.04;60.16
75681;BME280;64294;49.176;16.626;2023-04-24T00:39:52;98242.44;;;12.06;61.77
75681;BME280;64294;49.176;16.626;2023-04-24T00:42:18;98246.97;;;12.02;62.65
75681;BME280;64294;49.176;16.626;2023-04-24T00:44:43;98238.19;;;11.98;62.67
75681;BME280;64294;49.176;16.626;2023-04-24T00:47:09;98237.44;;;11.97;62.09
75681;BME280;64294;49.176;16.626;2023-04-24T00:49:36;98242.94;;;11.88;64.16
75681;BME280;64294;49.176;16.626;2023-04-24T00:52:01;98235.47;;;11.82;63.62
75681;BME280;64294;49.176;16.626;2023-04-24T00:54:27;98232.47;;;11.80;62.49
75681;BME280;64294;49.176;16.626;2023-04-24T00:56:52;98226.84;;;11.80;65.36
75681;BME280;64294;49.176;16.626;2023-04-24T00:59:18;98233.22;;;11.81;62.80
75681;BME280;64294;49.176;16.626;2023-04-24T01:01:45;98228.34;;;11.81;63.69
75681;BME280;64294;49.176;16.626;2023-04-24T01:04:11;98227.03;;;11.82;63.83
75681;BME280;64294;49.176;16.626;2023-04-24T01:06:41;98231.00;;;11.79;65.32
75681;BME280;64294;49.176;16.626;2023-04-24T01:09:07;98237.13;;;11.86;63.86
75681;BME280;64294;49.176;16.626;2023-04-24T01:11:34;98242.00;;;11.93;64.52
75681;BME280;64294;49.176;16.626;2023-04-24T01:13:59;98239.19;;;11.93;62.95
75681;BME280;64294;49.176;16.626;2023-04-24T01:16:25;98239.91;;;11.93;63.59
75681;BME280;64294;49.176;16.626;2023-04-24T01:18:51;98234.22;;;12.01;61.72
75681;BME280;64294;49.176;16.626;2023-04-24T01:21:17;98239.25;;;12.10;62.10
75681;BME280;64294;49.176;16.626;2023-04-24T01:23:44;98240.16;;;12.12;64.57
75681;BME280;64294;49.176;16.626;2023-04-24T01:26:11;98238.09;;;12.13;66.76
75681;BME280;64294;49.176;16.626;2023-04-24T01:28:36;98236.78;;;12.14;66.27
75681;BME280;64294;49.176;16.626;2023-04-24T01:31:02;98227.41;;;12.11;67.26
75681;BME280;64294;49.176;16.626;2023-04-24T01:33:28;98224.94;;;12.16;63.80
75681;BME280;64294;49.176;16.626;2023-04-24T01:35:53;98226.00;;;12.20;66.11
75681;BME280;64294;49.176;16.626;2023-04-24T01:38:19;98229.16;;;12.24;67.13
75681;BME280;64294;49.176;16.626;2023-04-24T01:40:44;98222.22;;;12.25;68.18
75681;BME280;64294;49.176;16.626;2023-04-24T01:43:11;98224.84;;;12.23;69.26
75681;BME280;64294;49.176;16.626;2023-04-24T01:45:36;98214.50;;;12.26;68.38
75681;BME280;64294;49.176;16.626;2023-04-24T01:48:02;98206.75;;;12.34;65.40
75681;BME280;64294;49.176;16.626;2023-04-24T01:50:28;98211.81;;;12.35;65.92
75681;BME280;64294;49.176;16.626;2023-04-24T01:52:53;98204.59;;;12.42;67.33
75681;BME280;64294;49.176;16.626;2023-04-24T01:55:18;98201.03;;;12.41;66.16
75681;BME280;64294;49.176;16.626;2023-04-24T01:57:44;98202.19;;;12.38;67.28
75681;BME280;64294;49.176;16.626;2023-04-24T02:00:10;98209.66;;;12.43;66.34
75681;BME280;64294;49.176;16.626;2023-04-24T02:02:37;98205.50;;;12.44;66.66
75681;BME280;64294;49.176;16.626;2023-04-24T02:05:02;98204.19;;;12.46;67.26
75681;BME280;64294;49.176;16.626;2023-04-24T02:07:28;98199.88;;;12.44;67.83
75681;BME280;64294;49.176;16.626;2023-04-24T02:09:53;98190.88;;;12.46;67.54
75681;BME280;64294;49.176;16.626;2023-04-24T02:12:18;98197.25;;;12.47;67.93
75681;BME280;64294;49.176;16.626;2023-04-24T02:14:44;98191.78;;;12.49;69.39
75681;BME280;64294;49.176;16.626;2023-04-24T02:17:09;98198.16;;;12.49;67.75
75681;BME280;64294;49.176;16.626;2023-04-24T02:19:37;98183.50;;;12.51;69.59
75681;BME280;64294;49.176;16.626;2023-04-24T02:22:02;98185.72;;;12.52;69.58
75681;BME280;64294;49.176;16.626;2023-04-24T02:24:28;98182.34;;;12.54;72.53
75681;BME280;64294;49.176;16.626;2023-04-24T02:26:53;98182.50;;;12.56;72.58
75681;BME280;64294;49.176;16.626;2023-04-24T02:29:18;98182.50;;;12.56;72.21
75681;BME280;64294;49.176;16.626;2023-04-24T02:31:44;98175.88;;;12.61;71.99
75681;BME280;64294;49.176;16.626;2023-04-24T02:34:09;98176.72;;;12.71;70.26
75681;BME280;64294;49.176;16.626;2023-04-24T02:36:35;98181.50;;;12.61;71.90
75681;BME280;64294;49.176;16.626;2023-04-24T02:39:00;98172.88;;;12.59;71.46
75681;BME280;64294;49.176;16.626;2023-04-24T02:41:26;98177.03;;;12.58;70.61
75681;BME280;64294;49.176;16.626;2023-04-24T02:43:57;98178.50;;;12.59;69.96
75681;BME280;64294;49.176;16.626;2023-04-24T02:46:22;98177.78;;;12.58;70.79
75681;BME280;64294;49.176;16.626;2023-04-24T02:48:47;98174.19;;;12.58;71.76
75681;BME280;64294;49.176;16.626;2023-04-24T02:51:13;98171.38;;;12.58;72.75
75681;BME280;64294;49.176;16.626;2023-04-24T02:53:38;98178.09;;;12.62;70.94
75681;BME280;64294;49.176;16.626;2023-04-24T02:56:04;98175.88;;;12.61;72.42
75681;BME280;64294;49.176;16.626;2023-04-24T02:58:29;98171.38;;;12.58;72.13
75681;BME280;64294;49.176;16.626;2023-04-24T03:00:55;98165.34;;;12.61;72.48
75681;BME280;64294;49.176;16.626;2023-04-24T03:03:21;98175.13;;;12.60;72.75
75681;BME280;64294;49.176;16.626;2023-04-24T03:05:47;98166.66;;;12.60;69.95
75681;BME280;64294;49.176;16.626;2023-04-24T03:08:12;98171.88;;;12.64;70.74
75681;BME280;64294;49.176;16.626;2023-04-24T03:10:37;98176.53;;;12.69;67.46
75681;BME280;64294;49.176;16.626;2023-04-24T03:13:03;98171.72;;;12.79;69.31
75681;BME280;64294;49.176;16.626;2023-04-24T03:15:28;98166.09;;;12.79;66.10
75681;BME280;64294;49.176;16.626;2023-04-24T03:17:54;98165.50;;;12.81;66.26
75681;BME280;64294;49.176;16.626;2023-04-24T03:20:20;98163.84;;;12.78;66.71
75681;BME280;64294;49.176;16.626;2023-04-24T03:22:45;98161.19;;;12.80;66.86
75681;BME280;64294;49.176;16.626;2023-04-24T03:25:11;98154.22;;;12.81;66.30
75681;BME280;64294;49.176;16.626;2023-04-24T03:27:36;98165.09;;;12.84;65.69
75681;BME280;64294;49.176;16.626;2023-04-24T03:30:02;98164.09;;;12.89;65.96
75681;BME280;64294;49.176;16.626;2023-04-24T03:32:28;98166.66;;;12.95;65.82
75681;BME280;64294;49.176;16.626;2023-04-24T03:34:53;98162.03;;;12.90;65.66
75681;BME280;64294;49.176;16.626;2023-04-24T03:37:19;98167.72;;;12.99;66.07
75681;BME280;64294;49.176;16.626;2023-04-24T03:39:44;98166.41;;;13.00;67.81
75681;BME280;64294;49.176;16.626;2023-04-24T03:42:10;98167.97;;;13.11;65.74
75681;BME280;64294;49.176;16.626;2023-04-24T03:44:35;98170.75;;;13.01;64.97
75681;BME280;64294;49.176;16.626;2023-04-24T03:47:01;98168.66;;;13.02;65.29
75681;BME280;64294;49.176;16.626;2023-04-24T03:49:27;98170.38;;;12.97;65.43
75681;BME280;64294;49.176;16.626;2023-04-24T03:51:52;98169.91;;;12.91;66.19
75681;BME280;64294;49.176;16.626;2023-04-24T03:54:21;98179.84;;;12.92;66.72
75681;BME280;64294;49.176;16.626;2023-04-24T03:56:46;98166.50;;;12.93;66.53
75681;BME280;64294;49.176;16.626;2023-04-24T03:59:12;98172.56;;;12.89;67.07
75681;BME280;64294;49.176;16.626;2023-04-24T04:01:38;98174.53;;;12.96;67.12
75681;BME280;64294;49.176;16.626;2023-04-24T04:04:05;98173.16;;;12.88;67.48
75681;BME280;64294;49.176;16.626;2023-04-24T04:06:30;98168.41;;;12.90;67.46
75681;BME280;64294;49.176;16.626;2023-04-24T04:08:56;98166.59;;;12.85;67.83
75681;BME280;64294;49.176;16.626;2023-04-24T04:11:22;98168.09;;;12.86;68.17
75681;BME280;64294;49.176;16.626;2023-04-24T04:13:47;98162.44;;;12.86;68.74
75681;BME280;64294;49.176;16.626;2023-04-24T04:16:13;98168.41;;;12.90;68.03
75681;BME280;64294;49.176;16.626;2023-04-24T04:18:39;98172.06;;;12.83;68.51
75681;BME280;64294;49.176;16.626;2023-04-24T04:21:04;98176.88;;;12.90;68.80
75681;BME280;64294;49.176;16.626;2023-04-24T04:23:30;98169.41;;;12.85;68.81
75681;BME280;64294;49.176;16.626;2023-04-24T04:25:55;98172.81;;;12.84;68.72
75681;BME280;64294;49.176;16.626;2023-04-24T04:28:21;98165.00;;;12.92;68.76
75681;BME280;64294;49.176;16.626;2023-04-24T04:30:46;98175.22;;;12.87;68.75
75681;BME280;64294;49.176;16.626;2023-04-24T04:33:12;98169.91;;;12.74;70.11
75681;BME280;64294;49.176;16.626;2023-04-24T04:35:38;98172.56;;;12.72;70.57
75681;BME280;64294;49.176;16.626;2023-04-24T04:38:03;98164.09;;;12.72;70.88
75681;BME280;64294;49.176;16.626;2023-04-24T04:40:29;98165.59;;;12.73;71.04
75681;BME280;64294;49.176;16.626;2023-04-24T04:42:55;98160.28;;;12.77;71.39
75681;BME280;64294;49.176;16.626;2023-04-24T04:45:21;98155.31;;;12.68;71.46
75681;BME280;64294;49.176;16.626;2023-04-24T04:47:46;98154.97;;;12.64;72.23
75681;BME280;64294;49.176;16.626;2023-04-24T04:50:12;98158.03;;;12.58;72.04
75681;BME280;64294;49.176;16.626;2023-04-24T04:52:38;98158.31;;;12.70;71.88
75681;BME280;64294;49.176;16.626;2023-04-24T04:55:04;98156.81;;;12.69;72.29
75681;BME280;64294;49.176;16.626;2023-04-24T04:57:30;98150.09;;;12.64;71.92
75681;BME280;64294;49.176;16.626;2023-04-24T04:59:55;98153.31;;;12.78;73.20
75681;BME280;64294;49.176;16.626;2023-04-24T05:02:21;98151.66;;;12.75;73.36
75681;BME280;64294;49.176;16.626;2023-04-24T05:04:46;98153.00;;;12.74;73.93
75681;BME280;64294;49.176;16.626;2023-04-24T05:07:12;98152.25;;;12.73;73.45
75681;BME280;64294;49.176;16.626;2023-04-24T05:09:37;98156.06;;;12.86;73.00
75681;BME280;64294;49.176;16.626;2023-04-24T05:12:03;98152.06;;;12.89;73.35
75681;BME280;64294;49.176;16.626;2023-04-24T05:14:28;98162.78;;;12.73;73.45
75681;BME280;64294;49.176;16.626;2023-04-24T05:16:54;98156.66;;;12.84;73.23
75681;BME280;64294;49.176;16.626;2023-04-24T05:19:19;98152.25;;;12.91;73.35
75681;BME280;64294;49.176;16.626;2023-04-24T05:21:44;98151.81;;;12.94;73.32
75681;BME280;64294;49.176;16.626;2023-04-24T05:24:10;98155.38;;;12.78;73.27
75681;BME280;64294;49.176;16.626;2023-04-24T05:26:35;98157.63;;;12.96;72.87
75681;BME280;64294;49.176;16.626;2023-04-24T05:29:02;98155.38;;;12.95;72.27
75681;BME280;64294;49.176;16.626;2023-04-24T05:31:27;98156.09;;;13.13;72.71
75681;BME280;64294;49.176;16.626;2023-04-24T05:33:52;98152.13;;;13.16;71.67
75681;BME280;64294;49.176;16.626;2023-04-24T05:36:18;98147.91;;;13.07;71.82
75681;BME280;64294;49.176;16.626;2023-04-24T05:38:43;98153.78;;;13.19;72.06
75681;BME280;64294;49.176;16.626;2023-04-24T05:41:09;98161.44;;;13.26;70.76
75681;BME280;64294;49.176;16.626;2023-04-24T05:43:34;98156.09;;;13.30;71.26
75681;BME280;64294;49.176;16.626;2023-04-24T05:45:59;98159.97;;;13.34;70.94
75681;BME280;64294;49.176;16.626;2023-04-24T05:48:25;98166.59;;;13.47;69.80
75681;BME280;64294;49.176;16.626;2023-04-24T05:50:51;98162.97;;;13.63;70.61
75681;BME280;64294;49.176;16.626;2023-04-24T05:53:18;98159.09;;;13.59;69.95
75681;BME280;64294;49.176;16.626;2023-04-24T05:55:43;98156.28;;;13.59;69.20
75681;BME280;64294;49.176;16.626;2023-04-24T05:58:09;98157.50;;;13.75;68.90
75681;BME280;64294;49.176;16.626;2023-04-24T06:00:34;98158.16;;;13.83;67.74
75681;BME280;64294;49.176;16.626;2023-04-24T06:03:00;98151.69;;;14.00;66.08
75681;BME280;64294;49.176;16.626;2023-04-24T06:05:26;98155.56;;;14.05;65.76
75681;BME280;64294;49.176;16.626;2023-04-24T06:07:51;98155.66;;;14.34;64.85
75681;BME280;64294;49.176;16.626;2023-04-24T06:10:17;98151.81;;;14.48;64.10
75681;BME280;64294;49.176;16.626;2023-04-24T06:12:43;98149.72;;;14.49;62.74
75681;BME280;64294;49.176;16.626;2023-04-24T06:15:09;98140.31;;;14.37;63.56
75681;BME280;64294;49.176;16.626;2023-04-24T06:17:34;98156.69;;;14.38;63.63
75681;BME280;64294;49.176;16.626;2023-04-24T06:19:59;98156.00;;;14.67;62.62
75681;BME280;64294;49.176;16.626;2023-04-24T06:22:25;98156.31;;;14.61;62.47
75681;BME280;64294;49.176;16.626;2023-04-24T06:24:50;98157.50;;;14.58;63.09
75681;BME280;64294;49.176;16.626;2023-04-24T06:27:16;98152.91;;;14.72;61.95
75681;BME280;64294;49.176;16.626;2023-04-24T06:29:41;98156.47;;;14.82;61.58
75681;BME280;64294;49.176;16.626;2023-04-24T06:32:07;98157.06;;;14.71;62.46
75681;BME280;64294;49.176;16.626;2023-04-24T06:34:32;98158.84;;;14.76;62.38
75681;BME280;64294;49.176;16.626;2023-04-24T06:36:59;98155.56;;;14.51;63.06
75681;BME280;64294;49.176;16.626;2023-04-24T06:39:25;98157.19;;;14.54;63.55
75681;BME280;64294;49.176;16.626;2023-04-24T06:41:50;98160.03;;;14.54;63.71
75681;BME280;64294;49.176;16.626;2023-04-24T06:44:16;98162.38;;;14.48;64.46
75681;BME280;64294;49.176;16.626;2023-04-24T06:46:41;98166.75;;;14.78;63.72
75681;BME280;64294;49.176;16.626;2023-04-24T06:49:07;98149.94;;;14.70;64.76
75681;BME280;64294;49.176;16.626;2023-04-24T06:51:32;98160.50;;;14.70;63.99
75681;BME280;64294;49.176;16.626;2023-04-24T06:53:59;98159.28;;;14.82;63.87
75681;BME280;64294;49.176;16.626;2023-04-24T06:56:25;98154.53;;;14.56;64.44
75681;BME280;64294;49.176;16.626;2023-04-24T06:58:51;98151.41;;;14.52;65.41
75681;BME280;64294;49.176;16.626;2023-04-24T07:01:16;98161.66;;;15.05;64.50
75681;BME280;64294;49.176;16.626;2023-04-24T07:03:42;98159.16;;;14.80;62.76
75681;BME280;64294;49.176;16.626;2023-04-24T07:06:08;98156.31;;;14.90;62.97
75681;BME280;64294;49.176;16.626;2023-04-24T07:08:35;98155.41;;;14.97;62.44
75681;BME280;64294;49.176;16.626;2023-04-24T07:11:01;98154.53;;;15.14;62.76
75681;BME280;64294;49.176;16.626;2023-04-24T07:13:27;98157.34;;;14.85;62.86
75681;BME280;64294;49.176;16.626;2023-04-24T07:15:53;98154.66;;;14.58;63.51
75681;BME280;64294;49.176;16.626;2023-04-24T07:18:20;98155.09;;;14.45;63.13
75681;BME280;64294;49.176;16.626;2023-04-24T07:20:46;98159.44;;;14.65;63.70
75681;BME280;64294;49.176;16.626;2023-04-24T07:23:11;98157.81;;;14.81;63.13
75681;BME280;64294;49.176;16.626;2023-04-24T07:25:37;98158.69;;;15.03;62.52
75681;BME280;64294;49.176;16.626;2023-04-24T07:28:03;98160.50;;;14.89;62.36
75681;BME280;64294;49.176;16.626;2023-04-24T07:30:30;98157.66;;;14.99;62.51
75681;BME280;64294;49.176;16.626;2023-04-24T07:32:55;98163.72;;;15.24;62.21
75681;BME280;64294;49.176;16.626;2023-04-24T07:35:21;98163.41;;;15.39;60.59
75681;BME280;64294;49.176;16.626;2023-04-24T07:37:46;98159.75;;;15.08;61.00
75681;BME280;64294;49.176;16.626;2023-04-24T07:40:12;98163.56;;;15.41;60.37
75681;BME280;64294;49.176;16.626;2023-04-24T07:42:38;98159.22;;;15.60;60.15
75681;BME280;64294;49.176;16.626;2023-04-24T07:45:04;98155.19;;;15.63;59.75
75681;BME280;64294;49.176;16.626;2023-04-24T07:47:30;98155.13;;;16.13;58.12
75681;BME280;64294;49.176;16.626;2023-04-24T07:49:56;98158.16;;;16.58;57.06
75681;BME280;64294;49.176;16.626;2023-04-24T07:52:22;98157.19;;;17.08;56.16
75681;BME280;64294;49.176;16.626;2023-04-24T07:54:47;98160.47;;;17.25;54.66
75681;BME280;64294;49.176;16.626;2023-04-24T07:57:12;98162.56;;;17.25;55.50
75681;BME280;64294;49.176;16.626;2023-04-24T07:59:39;98164.03;;;17.26;54.70
75681;BME280;64294;49.176;16.626;2023-04-24T08:02:04;98161.22;;;16.72;55.52
75681;BME280;64294;49.176;16.626;2023-04-24T08:04:31;98160.88;;;17.10;54.70
75681;BME280;64294;49.176;16.626;2023-04-24T08:06:56;98161.78;;;17.13;53.56
75681;BME280;64294;49.176;16.626;2023-04-24T08:09:22;98154.41;;;17.19;54.05
75681;BME280;64294;49.176;16.626;2023-04-24T08:11:47;98164.34;;;17.09;54.19
75681;BME280;64294;49.176;16.626;2023-04-24T08:14:13;98164.72;;;16.82;54.58
75681;BME280;64294;49.176;16.626;2023-04-24T08:16:40;98157.31;;;16.77;54.39
75681;BME280;64294;49.176;16.626;2023-04-24T08:19:05;98153.47;;;17.05;54.03
75681;BME280;64294;49.176;16.626;2023-04-24T08:21:31;98153.69;;;16.98;53.65
75681;BME280;64294;49.176;16.626;2023-04-24T08:23:57;98160.66;;;16.85;53.10
75681;BME280;64294;49.176;16.626;2023-04-24T08:26:22;98163.72;;;17.10;52.03
75681;BME280;64294;49.176;16.626;2023-04-24T08:28:48;98158.50;;;16.95;52.78
75681;BME280;64294;49.176;16.626;2023-04-24T08:31:13;98161.88;;;17.03;52.70
75681;BME280;64294;49.176;16.626;2023-04-24T08:33:39;98165.72;;;16.86;53.17
75681;BME280;64294;49.176;16.626;2023-04-24T08:36:06;98172.66;;;17.16;52.23
75681;BME280;64294;49.176;16.626;2023-04-24T08:38:32;98168.53;;;17.08;53.04
75681;BME280;64294;49.176;16.626;2023-04-24T08:40:59;98166.50;;;17.20;52.86
75681;BME280;64294;49.176;16.626;2023-04-24T08:43:25;98168.91;;;16.81;54.23
75681;BME280;64294;49.176;16.626;2023-04-24T08:45:52;98178.78;;;16.80;54.62
75681;BME280;64294;49.176;16.626;2023-04-24T08:48:17;98176.22;;;16.84;54.90
75681;BME280;64294;49.176;16.626;2023-04-24T08:50:43;98178.72;;;16.68;55.50
75681;BME280;64294;49.176;16.626;2023-04-24T08:53:10;98174.19;;;16.75;55.30
75681;BME280;64294;49.176;16.626;2023-04-24T08:55:37;98173.91;;;16.18;56.83
75681;BME280;64294;49.176;16.626;2023-04-24T08:58:03;98171.97;;;16.21;57.19
75681;BME280;64294;49.176;16.626;2023-04-24T09:00:29;98168.47;;;16.01;57.58
75681;BME280;64294;49.176;16.626;2023-04-24T09:02:56;98179.06;;;16.00;57.65
75681;BME280;64294;49.176;16.626;2023-04-24T09:05:22;98176.03;;;16.08;58.12
75681;BME280;64294;49.176;16.626;2023-04-24T09:07:55;98174.34;;;16.15;58.02
75681;BME280;64294;49.176;16.626;2023-04-24T09:10:23;98175.16;;;16.37;57.01
75681;BME280;64294;49.176;16.626;2023-04-24T09:12:51;98179.41;;;16.47;56.92
75681;BME280;64294;49.176;16.626;2023-04-24T09:15:20;98179.31;;;16.35;57.18
75681;BME280;64294;49.176;16.626;2023-04-24T09:17:47;98179.84;;;16.22;57.91
75681;BME280;64294;49.176;16.626;2023-04-24T09:20:12;98185.00;;;16.04;58.18
75681;BME280;64294;49.176;16.626;2023-04-24T09:22:38;98193.38;;;16.02;58.07
75681;BME280;64294;49.176;16.626;2023-04-24T09:25:05;98189.06;;;16.01;57.86
75681;BME280;64294;49.176;16.626;2023-04-24T09:27:33;98191.22;;;15.72;59.90
75681;BME280;64294;49.176;16.626;2023-04-24T09:29:59;98192.44;;;15.69;63.09
75681;BME280;64294;49.176;16.626;2023-04-24T09:32:25;98189.19;;;15.63;64.83
75681;BME280;64294;49.176;16.626;2023-04-24T09:37:38;98194.81;;;15.72;64.63
75681;BME280;64294;49.176;16.626;2023-04-24T09:40:25;98182.91;;;15.55;67.24
75681;BME280;64294;49.176;16.626;2023-04-24T09:42:57;98188.00;;;15.47;70.26
75681;BME280;64294;49.176;16.626;2023-04-24T09:45:35;98194.38;;;15.57;70.63
75681;BME280;64294;49.176;16.626;2023-04-24T09:48:01;98188.59;;;15.35;72.62
75681;BME280;64294;49.176;16.626;2023-04-24T09:50:27;98192.03;;;15.34;72.89
75681;BME280;64294;49.176;16.626;2023-04-24T09:52:57;98182.47;;;15.49;70.89
75681;BME280;64294;49.176;16.626;2023-04-24T09:55:23;98184.72;;;15.40;71.92
75681;BME280;64294;49.176;16.626;2023-04-24T09:57:53;98187.84;;;15.44;70.63
75681;BME280;64294;49.176;16.626;2023-04-24T10:00:30;98183.81;;;15.38;71.08
75681;BME280;64294;49.176;16.626;2023-04-24T10:08:06;98195.28;;;15.50;69.23
75681;BME280;64294;49.176;16.626;2023-04-24T10:10:33;98191.22;;;15.72;68.90
75681;BME280;64294;49.176;16.626;2023-04-24T10:13:00;98184.63;;;15.89;68.21
75681;BME280;64294;49.176;16.626;2023-04-24T10:15:26;98189.69;;;15.90;68.52
75681;BME280;64294;49.176;16.626;2023-04-24T10:17:52;98186.75;;;16.19;66.89
75681;BME280;64294;49.176;16.626;2023-04-24T10:20:20;98188.34;;;15.91;65.89
75681;BME280;64294;49.176;16.626;2023-04-24T10:22:48;98195.63;;;15.94;65.78
75681;BME280;64294;49.176;16.626;2023-04-24T10:25:16;98197.13;;;15.95;65.33
75681;BME280;64294;49.176;16.626;2023-04-24T10:27:42;98198.25;;;16.12;64.77
75681;BME280;64294;49.176;16.626;2023-04-24T10:30:08;98199.13;;;15.83;66.20
75681;BME280;64294;49.176;16.626;2023-04-24T10:32:36;98199.06;;;15.93;65.82
75681;BME280;64294;49.176;16.626;2023-04-24T10:35:01;98203.56;;;15.86;66.23
75681;BME280;64294;49.176;16.626;2023-04-24T10:37:27;98209.84;;;15.75;66.24
75681;BME280;64294;49.176;16.626;2023-04-24T10:39:53;98211.53;;;15.59;67.02
75681;BME280;64294;49.176;16.626;2023-04-24T10:42:19;98212.44;;;15.32;67.22
75681;BME280;64294;49.176;16.626;2023-04-24T10:44:47;98221.25;;;15.07;67.82
75681;BME280;64294;49.176;16.626;2023-04-24T10:47:14;98215.28;;;15.13;67.83
75681;BME280;64294;49.176;16.626;2023-04-24T10:49:39;98209.47;;;14.92;68.36
75681;BME280;64294;49.176;16.626;2023-04-24T10:52:05;98215.84;;;14.73;70.09
75681;BME280;64294;49.176;16.626;2023-04-24T10:59:46;98219.91;;;14.43;72.02
75681;BME280;64294;49.176;16.626;2023-04-24T11:02:16;98222.94;;;14.45;72.01
75681;BME280;64294;49.176;16.626;2023-04-24T11:04:42;98226.38;;;14.53;72.44
75681;BME280;64294;49.176;16.626;2023-04-24T11:07:09;98219.91;;;14.33;72.44
75681;BME280;64294;49.176;16.626;2023-04-24T11:09:35;98218.84;;;14.29;72.16
75681;BME280;64294;49.176;16.626;2023-04-24T11:12:09;98222.69;;;14.23;72.80
75681;BME280;64294;49.176;16.626;2023-04-24T11:17:33;98231.31;;;14.25;73.54
75681;BME280;64294;49.176;16.626;2023-04-24T11:20:07;98237.91;;;14.38;73.20
75681;BME280;64294;49.176;16.626;2023-04-24T11:22:35;98234.50;;;14.39;73.98
75681;BME280;64294;49.176;16.626;2023-04-24T11:25:05;98231.91;;;14.51;73.19
75681;BME280;64294;49.176;16.626;2023-04-24T11:27:38;98231.34;;;14.81;72.04
75681;BME280;64294;49.176;16.626;2023-04-24T11:30:05;98227.94;;;15.02;71.58
75681;BME280;64294;49.176;16.626;2023-04-24T11:35:03;98238.34;;;15.58;69.67
75681;BME280;64294;49.176;16.626;2023-04-24T11:37:35;98239.66;;;15.76;68.24
75681;BME280;64294;49.176;16.626;2023-04-24T11:40:01;98237.94;;;16.12;67.25
75681;BME280;64294;49.176;16.626;2023-04-24T11:42:28;98243.38;;;16.29;66.12
75681;BME280;64294;49.176;16.626;2023-04-24T11:44:54;98240.50;;;15.98;68.10
75681;BME280;64294;49.176;16.626;2023-04-24T11:47:30;98236.13;;;15.37;69.23
75681;BME280;64294;49.176;16.626;2023-04-24T11:49:56;98244.47;;;15.15;70.80
75681;BME280;64294;49.176;16.626;2023-04-24T11:52:21;98249.69;;;15.00;71.95
75681;BME280;64294;49.176;16.626;2023-04-24T11:54:48;98251.03;;;15.08;71.24
75681;BME280;64294;49.176;16.626;2023-04-24T11:57:14;98248.78;;;14.88;72.76
75681;BME280;64294;49.176;16.626;2023-04-24T11:59:40;98241.28;;;14.53;74.95
75681;BME280;64294;49.176;16.626;2023-04-24T12:02:05;98247.13;;;14.38;74.39
75681;BME280;64294;49.176;16.626;2023-04-24T12:04:41;98249.09;;;14.09;75.13
75681;BME280;64294;49.176;16.626;2023-04-24T12:07:06;98246.78;;;14.24;75.01
75681;BME280;64294;49.176;16.626;2023-04-24T12:09:41;98243.34;;;14.16;75.08
75681;BME280;64294;49.176;16.626;2023-04-24T12:12:07;98233.03;;;14.11;76.81
75681;BME280;64294;49.176;16.626;2023-04-24T12:14:44;98229.88;;;13.98;77.75
75681;BME280;64294;49.176;16.626;2023-04-24T12:17:10;98223.44;;;14.24;77.07
75681;BME280;64294;49.176;16.626;2023-04-24T12:19:36;98233.06;;;14.48;75.39
75681;BME280;64294;49.176;16.626;2023-04-24T12:22:04;98225.66;;;14.52;74.72
75681;BME280;64294;49.176;16.626;2023-04-24T12:24:30;98233.09;;;14.67;73.18
75681;BME280;64294;49.176;16.626;2023-04-24T12:26:56;98230.75;;;14.73;72.76
75681;BME280;64294;49.176;16.626;2023-04-24T12:29:22;98223.44;;;14.70;72.57
75681;BME280;64294;49.176;16.626;2023-04-24T12:31:48;98232.81;;;14.73;72.70
75681;BME280;64294;49.176;16.626;2023-04-24T12:34:20;98234.16;;;14.81;72.32
75681;BME280;64294;49.176;16.626;2023-04-24T12:36:47;98238.78;;;14.87;72.11
75681;BME280;64294;49.176;16.626;2023-04-24T12:39:19;98242.81;;;14.83;70.94
75681;BME280;64294;49.176;16.626;2023-04-24T12:41:58;98240.25;;;14.68;70.78
75681;BME280;64294;49.176;16.626;2023-04-24T12:44:34;98245.28;;;14.60;69.99
75681;BME280;64294;49.176;16.626;2023-04-24T12:47:00;98240.16;;;14.39;70.33
75681;BME280;64294;49.176;16.626;2023-04-24T12:49:27;98250.81;;;14.31;70.49
75681;BME280;64294;49.176;16.626;2023-04-24T12:51:53;98254.09;;;14.28;71.16
75681;BME280;64294;49.176;16.626;2023-04-24T12:54:19;98251.22;;;14.18;71.01
75681;BME280;64294;49.176;16.626;2023-04-24T12:56:44;98258.16;;;14.07;70.23
75681;BME280;64294;49.176;16.626;2023-04-24T12:59:09;98241.13;;;14.24;69.67
75681;BME280;64294;49.176;16.626;2023-04-24T13:01:35;98241.69;;;14.13;69.47
75681;BME280;64294;49.176;16.626;2023-04-24T13:04:00;98249.16;;;14.18;68.98